Time;durP1;ratioP1;P1;durP2;ratioP2;P2;SDS_P1;SDS_P2;PMS_P1;PMS_P2;Temp;Humidity;BMP_temperature;BMP_pressure;BME280_temperature;BME280_humidity;BME280_pressure;Samples;Min_cycle;Max_cycle;Signal;HPM_P1;HPM_P2
2021/09/08 14:29:51;;;;;;;4.47;3.70;;;19.10;99.90;;;;;;2618806;39;20840;-43
2021/09/08 14:44:44;;;;;;;3.97;3.50;;;33.50;99.90;;;;;;2615403;47;20642;-41
2021/09/08 14:47:16;;;;;;;4.43;3.60;;;33.60;99.90;;;;;;2616330;54;20141;-41
2021/09/08 14:49:45;;;;;;;3.92;3.42;;;33.20;99.90;;;;;;2616462;54;20709;-40
2021/09/08 14:52:13;;;;;;;4.95;3.85;;;33.70;99.90;;;;;;2616834;39;20537;-41
2021/09/08 14:54:42;;;;;;;10.20;5.45;;;34.00;99.90;;;;;;2616209;54;20146;-41
2021/09/08 14:57:11;;;;;;;4.03;3.63;;;33.80;99.90;;;;;;2616573;54;20137;-41
2021/09/08 14:59:40;;;;;;;5.10;4.03;;;34.00;99.90;;;;;;2616533;54;20141;-41
2021/09/08 15:02:09;;;;;;;3.92;3.55;;;34.30;99.90;;;;;;2614768;47;20141;-41
2021/09/08 15:04:41;;;;;;;4.88;4.13;;;34.40;99.90;;;;;;2616364;47;20146;-41
2021/09/08 15:07:11;;;;;;;4.40;3.22;;;34.20;99.90;;;;;;2616862;39;20554;-42
2021/09/08 15:09:41;;;;;;;4.78;4.38;;;34.50;99.90;;;;;;2614905;54;20252;-41
2021/09/08 15:12:11;;;;;;;4.13;3.33;;;34.50;99.90;;;;;;2615965;54;20130;-40
2021/09/08 15:14:43;;;;;;;4.15;3.15;;;34.70;99.90;;;;;;2616231;54;20141;-41
2021/09/08 15:17:17;;;;;;;5.28;4.03;;;34.80;99.90;;;;;;2615774;54;20153;-42
2021/09/08 15:19:48;;;;;;;5.30;4.53;;;35.20;99.90;;;;;;2616336;54;20237;-40
2021/09/08 15:22:19;;;;;;;5.18;3.28;;;35.20;99.90;;;;;;2615844;54;20140;-41
2021/09/08 15:24:53;;;;;;;4.72;3.88;;;35.10;99.90;;;;;;2615838;54;20168;-42
2021/09/08 15:27:26;;;;;;;3.85;3.55;;;35.00;99.90;;;;;;2616748;54;20152;-41
2021/09/08 15:29:55;;;;;;;5.15;4.13;;;34.80;99.90;;;;;;2616485;54;20138;-42
2021/09/08 15:32:24;;;;;;;3.75;3.45;;;34.70;99.90;;;;;;2616172;54;20134;-41
2021/09/08 15:35:00;;;;;;;4.97;3.65;;;34.40;99.90;;;;;;2616699;39;20536;-43
2021/09/08 15:37:29;;;;;;;4.32;3.92;;;34.60;99.90;;;;;;2616369;54;20137;-40
2021/09/08 15:39:58;;;;;;;4.30;3.90;;;34.50;99.90;;;;;;2616150;54;20137;-40
2021/09/08 15:42:26;;;;;;;3.25;2.95;;;34.30;99.90;;;;;;2616133;54;20145;-41
2021/09/08 15:44:55;;;;;;;5.57;3.95;;;33.70;99.90;;;;;;2616186;39;20433;-40
2021/09/08 15:47:24;;;;;;;3.95;3.65;;;33.80;99.90;;;;;;2616262;54;20149;-40
2021/09/08 15:49:53;;;;;;;4.68;4.28;;;33.20;99.90;;;;;;2616463;54;20137;-42
2021/09/08 15:52:24;;;;;;;3.63;3.33;;;33.50;99.90;;;;;;2615940;51;20150;-41
2021/09/08 15:54:53;;;;;;;4.30;3.83;;;33.30;99.90;;;;;;2616033;51;20146;-40
2021/09/08 15:57:22;;;;;;;5.60;4.57;;;33.10;99.90;;;;;;2616156;54;20145;-42
2021/09/08 15:59:50;;;;;;;8.85;4.50;;;32.90;99.90;;;;;;2616160;54;20240;-40
2021/09/08 16:02:19;;;;;;;6.20;4.25;;;32.50;99.90;;;;;;2616019;54;20145;-41
2021/09/08 16:04:48;;;;;;;6.80;3.70;;;31.70;99.90;;;;;;2615865;54;20149;-41
2021/09/08 16:07:19;;;;;;;4.43;3.85;;;30.70;99.90;;;;;;2616154;54;20134;-39
2021/09/08 16:09:51;;;;;;;3.90;3.60;;;30.10;99.90;;;;;;2615435;54;20145;-42
2021/09/08 16:12:25;;;;;;;5.57;4.45;;;29.60;99.90;;;;;;2616079;54;20168;-42
2021/09/08 16:14:54;;;;;;;4.72;4.32;;;29.30;99.90;;;;;;2616513;39;20542;-41
2021/09/08 16:17:23;;;;;;;6.80;4.88;;;29.10;99.90;;;;;;2614281;54;20142;-40
2021/09/08 16:19:52;;;;;;;6.00;4.50;;;29.20;99.90;;;;;;2615346;54;20140;-41
2021/09/08 16:22:21;;;;;;;6.30;4.45;;;29.50;99.90;;;;;;2615531;54;20141;-41
2021/09/08 16:24:54;;;;;;;5.70;3.83;;;29.40;99.90;;;;;;2615404;54;20156;-40
2021/09/08 16:27:23;;;;;;;5.28;4.13;;;29.10;99.90;;;;;;2615731;54;20141;-42
2021/09/08 16:29:53;;;;;;;4.47;4.07;;;28.80;99.90;;;;;;2615624;54;20141;-40
2021/09/08 16:32:22;;;;;;;4.13;3.65;;;28.90;99.90;;;;;;2615218;54;20159;-41
2021/09/08 16:34:51;;;;;;;5.95;3.65;;;28.50;99.90;;;;;;2615570;54;20145;-40
2021/09/08 16:37:20;;;;;;;5.22;3.97;;;28.30;99.90;;;;;;2615972;54;20244;-41
2021/09/08 16:39:51;;;;;;;4.38;3.97;;;28.30;99.90;;;;;;2615604;54;20145;-41
2021/09/08 16:42:20;;;;;;;4.72;4.13;;;28.10;99.90;;;;;;2615768;54;20145;-41
2021/09/08 16:44:49;;;;;;;5.50;4.05;;;27.80;99.90;;;;;;2615792;54;20146;-40
2021/09/08 16:47:19;;;;;;;4.30;3.90;;;27.60;99.90;;;;;;2616006;54;20137;-43
2021/09/08 16:49:48;;;;;;;7.18;4.53;;;27.20;99.90;;;;;;2616095;54;20686;-40
2021/09/08 16:52:17;;;;;;;5.82;4.20;;;27.00;99.90;;;;;;2615818;54;20146;-39
2021/09/08 16:54:46;;;;;;;5.32;3.97;;;26.60;99.90;;;;;;2615872;51;20168;-39
2021/09/08 16:57:17;;;;;;;5.90;4.25;;;26.60;99.90;;;;;;2616009;54;20936;-43
2021/09/08 16:59:46;;;;;;;4.70;4.30;;;26.50;99.90;;;;;;2616144;54;20681;-39
2021/09/08 17:02:15;;;;;;;6.00;5.40;;;26.70;99.90;;;;;;2616136;39;20598;-41
2021/09/08 17:04:44;;;;;;;4.63;4.22;;;26.50;99.90;;;;;;2615483;54;20150;-42
2021/09/08 17:07:12;;;;;;;5.25;4.75;;;26.20;99.90;;;;;;2616193;54;20148;-39
2021/09/08 17:09:41;;;;;;;7.25;5.25;;;26.10;99.90;;;;;;2618778;47;20152;-39
2021/09/08 17:12:10;;;;;;;6.15;5.57;;;25.90;99.90;;;;;;2618971;54;20145;-42
2021/09/08 17:14:42;;;;;;;6.32;4.75;;;25.70;99.90;;;;;;2618654;54;20149;-39
2021/09/08 17:17:10;;;;;;;5.45;4.93;;;25.60;99.90;;;;;;2618512;47;20149;-40
2021/09/08 17:19:39;;;;;;;6.55;5.00;;;25.60;99.90;;;;;;2617273;39;20555;-40
2021/09/08 17:22:08;;;;;;;6.25;4.63;;;25.50;99.90;;;;;;2616836;46;20240;-41
2021/09/08 17:24:37;;;;;;;6.90;5.47;;;25.40;99.90;;;;;;2616891;54;20145;-41
2021/09/08 17:27:06;;;;;;;5.22;4.65;;;25.30;99.90;;;;;;2616701;47;20682;-39
2021/09/08 17:29:35;;;;;;;4.95;4.45;;;25.20;99.90;;;;;;2616673;54;20216;-41
2021/09/08 17:32:09;;;;;;;6.05;4.63;;;25.10;99.90;;;;;;2616529;54;20149;-40
2021/09/08 17:34:38;;;;;;;8.38;5.55;;;25.10;99.90;;;;;;2616354;54;20172;-40
2021/09/08 17:37:09;;;;;;;6.25;3.42;;;25.10;99.90;;;;;;2618164;54;20146;-41
2021/09/08 17:39:38;;;;;;;5.30;4.55;;;25.10;99.90;;;;;;2619931;54;20153;-40
2021/09/08 17:42:14;;;;;;;6.32;4.70;;;25.00;99.90;;;;;;2620217;54;20726;-39
2021/09/08 17:44:45;;;;;;;4.93;4.53;;;25.00;99.90;;;;;;2619735;54;20145;-40
2021/09/08 17:47:17;;;;;;;5.30;4.22;;;25.00;99.90;;;;;;2620114;39;20609;-41
2021/09/08 17:49:47;;;;;;;5.53;4.80;;;24.80;99.90;;;;;;2620079;54;20220;-41
2021/09/08 17:52:16;;;;;;;5.93;4.47;;;24.50;99.90;;;;;;2620369;48;20140;-40
2021/09/08 17:54:45;;;;;;;4.70;3.92;;;24.40;99.90;;;;;;2620116;54;20153;-41
2021/09/08 17:57:15;;;;;;;4.57;3.85;;;24.20;99.90;;;;;;2620606;47;20698;-41
2021/09/08 17:59:44;;;;;;;4.93;3.85;;;24.10;99.90;;;;;;2620415;54;20130;-40
2021/09/08 18:02:17;;;;;;;14.05;12.25;;;24.10;99.90;;;;;;2620317;54;20137;-40
2021/09/08 18:04:45;;;;;;;14.65;12.75;;;23.90;99.90;;;;;;2620105;54;20145;-42
2021/09/08 18:07:15;;;;;;;9.10;7.93;;;23.80;99.90;;;;;;2619586;54;20137;-40
2021/09/08 18:09:44;;;;;;;8.57;6.47;;;23.80;99.90;;;;;;2616959;39;20712;-40
2021/09/08 18:12:13;;;;;;;4.72;4.32;;;23.70;99.90;;;;;;2616240;54;20587;-40
2021/09/08 18:14:47;;;;;;;6.90;6.20;;;23.60;99.90;;;;;;2616582;54;20149;-40
2021/09/08 18:17:19;;;;;;;10.55;8.57;;;23.50;99.90;;;;;;2616653;47;20154;-41
2021/09/08 18:19:48;;;;;;;6.53;4.75;;;23.40;99.90;;;;;;2617038;39;20654;-40
2021/09/08 18:22:18;;;;;;;5.75;4.30;;;23.30;99.90;;;;;;2616347;54;20146;-40
2021/09/08 18:24:47;;;;;;;4.43;4.03;;;23.20;99.90;;;;;;2616422;54;20705;-40
2021/09/08 18:27:17;;;;;;;6.38;4.32;;;23.20;99.90;;;;;;2616593;54;20701;-40
2021/09/08 18:29:46;;;;;;;4.20;3.90;;;23.10;99.90;;;;;;2616423;54;20145;-43
2021/09/08 18:32:20;;;;;;;7.00;5.88;;;23.10;99.90;;;;;;2616216;54;20152;-39
2021/09/08 18:34:49;;;;;;;6.00;5.40;;;23.00;99.90;;;;;;2616289;54;20172;-40
2021/09/08 18:37:19;;;;;;;5.40;3.75;;;23.00;99.90;;;;;;2616571;47;20149;-42
2021/09/08 18:39:49;;;;;;;5.05;3.90;;;23.00;99.90;;;;;;2616469;54;20152;-40
2021/09/08 18:42:18;;;;;;;5.43;4.97;;;23.00;99.90;;;;;;2616789;39;20604;-40
2021/09/08 18:44:53;;;;;;;6.65;5.78;;;22.90;99.90;;;;;;2616354;54;20157;-40
2021/09/08 18:47:25;;;;;;;12.63;9.38;;;22.90;99.90;;;;;;2616604;54;20713;-40
2021/09/08 18:49:54;;;;;;;7.38;6.68;;;22.80;99.90;;;;;;2616759;54;20138;-40
2021/09/08 18:52:23;;;;;;;5.30;4.80;;;22.80;99.90;;;;;;2614127;47;20760;-41
2021/09/08 18:54:52;;;;;;;5.55;5.05;;;22.70;99.90;;;;;;2615992;39;20571;-40
2021/09/08 18:57:21;;;;;;;6.25;5.15;;;22.70;99.90;;;;;;2616899;39;20565;-40
2021/09/08 18:59:50;;;;;;;6.15;4.75;;;22.70;99.90;;;;;;2616286;54;20141;-40
2021/09/08 19:02:19;;;;;;;5.28;4.78;;;22.60;99.90;;;;;;2616135;54;20153;-41
2021/09/08 19:04:51;;;;;;;6.50;5.15;;;22.60;99.90;;;;;;2616228;54;20196;-39
2021/09/08 19:07:20;;;;;;;16.27;12.52;;;22.50;99.90;;;;;;2616091;39;20508;-40
2021/09/08 19:09:49;;;;;;;14.93;12.48;;;22.50;99.90;;;;;;2615850;54;20957;-39
2021/09/08 19:12:23;;;;;;;8.02;5.75;;;22.40;99.90;;;;;;2618387;48;20126;-79
2021/09/08 19:14:52;;;;;;;9.20;5.95;;;22.40;99.90;;;;;;2629516;54;20183;-81
2021/09/08 19:17:21;;;;;;;8.45;7.18;;;22.30;99.90;;;;;;2630567;54;20140;-79
2021/09/08 19:19:52;;;;;;;9.27;7.43;;;22.20;99.90;;;;;;2633165;46;20183;-79
2021/09/08 19:22:22;;;;;;;5.97;5.38;;;22.10;99.90;;;;;;2630476;54;21014;-81
2021/09/08 19:24:50;;;;;;;6.57;5.93;;;22.10;99.90;;;;;;2630473;47;20145;-81
2021/09/08 19:27:19;;;;;;;7.35;5.90;;;22.10;99.90;;;;;;2630138;54;21450;-80
2021/09/08 19:29:48;;;;;;;10.35;6.80;;;22.00;99.90;;;;;;2632341;39;20806;-82
2021/09/08 19:32:17;;;;;;;9.68;6.75;;;22.00;99.90;;;;;;2630387;54;20149;-81
2021/09/08 19:34:45;;;;;;;7.45;6.40;;;21.90;99.90;;;;;;2636546;39;20812;-82
2021/09/08 19:37:17;;;;;;;7.80;7.03;;;21.90;99.90;;;;;;2631119;54;20143;-81
2021/09/08 19:39:46;;;;;;;6.82;6.18;;;21.90;99.90;;;;;;2630734;47;20172;-79
2021/09/08 19:42:14;;;;;;;10.48;7.15;;;21.80;99.90;;;;;;2630681;54;20134;-81
2021/09/08 19:44:43;;;;;;;9.63;7.45;;;21.80;99.90;;;;;;2631044;39;20827;-82
2021/09/08 19:47:12;;;;;;;12.02;7.65;;;21.70;99.90;;;;;;2631140;54;20137;-83
2021/09/08 19:49:41;;;;;;;8.90;6.95;;;21.70;99.90;;;;;;2630410;54;20304;-81
2021/09/08 19:52:10;;;;;;;7.57;6.82;;;21.60;99.90;;;;;;2630791;47;20512;-81
2021/09/08 19:54:41;;;;;;;7.93;7.13;;;21.50;99.90;;;;;;2632862;39;20851;-80
2021/09/08 19:57:10;;;;;;;7.45;6.75;;;21.40;99.90;;;;;;2636059;39;20287;-82
2021/09/08 20:04:56;;;;;;;8.93;7.38;;;21.00;99.90;;;;;;2629190;54;20309;31
2021/09/08 20:16:06;;;;;;;11.05;7.72;;;20.70;99.90;;;;;;2630857;54;20201;-80
2021/09/08 20:23:42;;;;;;;10.60;7.97;;;20.40;99.90;;;;;;2620656;54;21354;-80
2021/09/08 20:26:11;;;;;;;10.88;7.70;;;20.50;99.90;;;;;;2630711;47;20193;-79
2021/09/08 20:28:41;;;;;;;10.77;7.78;;;20.50;99.90;;;;;;2631013;54;20200;-82
2021/09/08 20:31:22;;;;;;;10.93;8.30;;;20.60;99.90;;;;;;2630341;54;20214;-80
2021/09/08 20:33:52;;;;;;;10.77;7.55;;;20.60;99.90;;;;;;2631104;54;20149;-82
2021/09/08 20:36:24;;;;;;;11.45;8.60;;;20.60;99.90;;;;;;2647893;39;20914;-82
2021/09/08 20:38:52;;;;;;;16.13;12.20;;;20.60;99.90;;;;;;2619828;47;20260;-80
2021/09/08 20:46:49;;;;;;;14.13;12.80;;;20.50;99.90;;;;;;2628748;54;20212;-82
2021/09/08 20:49:28;;;;;;;13.52;12.00;;;20.50;99.90;;;;;;2627545;54;20208;-81
2021/09/08 20:54:29;;;;;;;10.35;7.97;;;20.50;99.90;;;;;;2616335;46;20227;-81
2021/09/08 20:56:58;;;;;;;8.15;6.90;;;20.40;99.90;;;;;;2630882;46;21355;-80
2021/09/08 20:59:27;;;;;;;9.30;8.32;;;20.30;99.90;;;;;;2631489;47;20184;-81
2021/09/08 21:01:56;;;;;;;11.73;8.63;;;20.20;99.90;;;;;;2631590;46;20164;-81
2021/09/08 21:04:24;;;;;;;10.57;8.57;;;20.00;99.90;;;;;;2631569;47;20126;-80
2021/09/08 21:06:56;;;;;;;10.73;9.63;;;20.00;99.90;;;;;;2631584;47;20144;-82
2021/09/08 21:09:27;;;;;;;11.07;9.93;;;19.90;99.90;;;;;;2630691;47;20188;-81
2021/09/08 21:11:56;;;;;;;10.23;9.23;;;20.00;99.90;;;;;;2631457;47;20160;-81
2021/09/08 21:14:25;;;;;;;11.68;9.23;;;20.00;99.90;;;;;;2631354;46;20160;-83
2021/09/08 21:17:00;;;;;;;15.25;10.38;;;19.90;99.90;;;;;;2630758;54;20204;-83
2021/09/08 21:19:29;;;;;;;10.82;9.55;;;19.90;99.90;;;;;;2631628;54;20855;-82
2021/09/08 21:27:22;;;;;;;12.27;11.00;;;20.00;99.90;;;;;;2628750;54;20315;-83
2021/09/08 21:30:02;;;;;;;14.30;10.05;;;20.00;99.90;;;;;;2626765;47;20201;-83
2021/09/08 21:50:46;;;;;;;12.07;10.95;;;19.60;99.90;;;;;;2631365;54;21240;-82
2021/09/08 21:53:21;;;;;;;11.48;10.38;;;19.70;99.90;;;;;;2628599;47;20204;-84
2021/09/08 21:58:25;;;;;;;13.18;11.50;;;19.70;99.90;;;;;;2631600;54;20160;-84
2021/09/08 22:09:30;;;;;;;14.65;10.43;;;19.50;99.90;;;;;;2630303;54;20217;-83
2021/09/08 22:14:50;;;;;;;12.05;10.55;;;19.40;99.90;;;;;;2632527;54;20145;-81
2021/09/08 22:17:19;;;;;;;11.90;10.70;;;19.40;99.90;;;;;;2632541;54;20134;-83
2021/09/08 22:25:14;;;;;;;11.85;10.10;;;19.40;99.90;;;;;;2632329;54;20161;-83
2021/09/08 22:30:40;;;;;;;15.95;11.45;;;19.40;99.90;;;;;;2625058;54;20205;-83
2021/09/08 22:33:08;;;;;;;12.45;11.18;;;19.40;99.90;;;;;;2631571;47;20160;-81
2021/09/08 22:40:46;;;;;;;12.43;10.93;;;19.30;99.90;;;;;;2631434;47;20144;-81
2021/09/08 22:43:15;;;;;;;12.02;10.93;;;19.30;99.90;;;;;;2628065;54;20196;-82
2021/09/08 22:45:47;;;;;;;12.75;11.45;;;19.20;99.90;;;;;;2631067;47;20196;-83
2021/09/08 22:48:19;;;;;;;13.60;12.20;;;19.10;99.90;;;;;;2631447;54;20896;-83
2021/09/08 22:58:54;;;;;;;16.20;12.88;;;18.60;99.90;;;;;;2631449;54;20145;-81
2021/09/08 23:01:23;;;;;;;12.48;11.27;;;18.70;99.90;;;;;;2631472;54;20148;-84
2021/09/08 23:06:31;;;;;;;13.82;11.85;;;18.80;99.90;;;;;;2630006;54;21216;31
2021/09/08 23:09:03;;;;;;;13.13;11.77;;;18.70;99.90;;;;;;2631337;47;20197;-83
2021/09/08 23:11:32;;;;;;;13.50;12.07;;;18.70;99.90;;;;;;2631453;54;20157;-82
2021/09/08 23:14:02;;;;;;;14.68;13.13;;;18.70;99.90;;;;;;2631419;47;20138;-82
2021/09/08 23:16:41;;;;;;;12.30;11.15;;;18.70;99.90;;;;;;2628523;47;20209;-82
2021/09/08 23:19:11;;;;;;;13.05;10.95;;;18.70;99.90;;;;;;2631480;46;20151;-83
2021/09/08 23:21:40;;;;;;;12.55;11.25;;;18.70;99.90;;;;;;2631319;47;20161;-83
2021/09/08 23:24:12;;;;;;;15.63;12.50;;;18.50;99.90;;;;;;2630290;54;20216;-83
2021/09/08 23:26:43;;;;;;;13.90;11.48;;;18.50;99.90;;;;;;2631400;47;20132;-81
2021/09/08 23:29:11;;;;;;;13.93;12.48;;;18.50;99.90;;;;;;2649990;39;20180;31
2021/09/08 23:31:41;;;;;;;14.32;12.82;;;18.30;99.90;;;;;;2630749;47;20900;31
2021/09/08 23:34:10;;;;;;;12.50;11.30;;;18.30;99.90;;;;;;2631233;47;20169;-83
2021/09/08 23:50:41;;;;;;;13.60;12.05;;;18.10;99.90;;;;;;2631254;54;20205;-83
2021/09/08 23:53:10;;;;;;;15.85;13.00;;;18.20;99.90;;;;;;2631259;54;20153;-83
2021/09/08 23:55:39;;;;;;;15.38;13.05;;;18.40;99.90;;;;;;2631201;47;20165;-82
2021/09/08 23:58:09;;;;;;;15.10;13.52;;;18.50;99.90;;;;;;2631251;47;20180;-82
